sensor_id;sensor_type;location;lat;lon;timestamp;pressure;altitude;pressure_sealevel;temperature;humidity
72124;BME280;63818;37.134;-8.548;2023-05-20T00:03:52;101071.9;;;21.6;34.5
72124;BME280;63818;37.134;-8.548;2023-05-20T00:08:41;101065.7;;;21.6;35.0
72124;BME280;63818;37.134;-8.548;2023-05-20T00:13:27;101062.1;;;21.6;35.1
72124;BME280;63818;37.134;-8.548;2023-05-20T00:18:21;101055.1;;;21.6;35.7
72124;BME280;63818;37.134;-8.548;2023-05-20T00:23:08;101047.3;;;21.6;35.9
72124;BME280;63818;37.134;-8.548;2023-05-20T00:27:53;101034.8;;;21.6;36.2
72124;BME280;63818;37.134;-8.548;2023-05-20T00:32:39;101019.1;;;21.6;36.2
72124;BME280;63818;37.134;-8.548;2023-05-20T00:37:36;101033.5;;;21.5;36.7
72124;BME280;63818;37.134;-8.548;2023-05-20T00:42:23;101019.0;;;21.4;37.0
72124;BME280;63818;37.134;-8.548;2023-05-20T00:47:09;101008.4;;;21.5;37.5
72124;BME280;63818;37.134;-8.548;2023-05-20T00:51:58;101003.0;;;21.5;37.5
72124;BME280;63818;37.134;-8.548;2023-05-20T00:56:44;101000.2;;;21.5;37.5
72124;BME280;63818;37.134;-8.548;2023-05-20T01:01:31;101000.2;;;21.5;37.8
72124;BME280;63818;37.134;-8.548;2023-05-20T01:06:16;100982.2;;;21.4;38.1
72124;BME280;63818;37.134;-8.548;2023-05-20T01:11:06;100989.6;;;21.4;38.2
72124;BME280;63818;37.134;-8.548;2023-05-20T01:15:54;100987.6;;;21.4;38.6
72124;BME280;63818;37.134;-8.548;2023-05-20T01:20:41;100980.5;;;21.3;39.2
72124;BME280;63818;37.134;-8.548;2023-05-20T01:25:31;100979.0;;;21.3;39.3
72124;BME280;63818;37.134;-8.548;2023-05-20T01:30:17;100975.5;;;21.3;39.9
72124;BME280;63818;37.134;-8.548;2023-05-20T01:35:04;100966.9;;;21.3;39.9
72124;BME280;63818;37.134;-8.548;2023-05-20T01:39:52;100963.0;;;21.3;40.3
72124;BME280;63818;37.134;-8.548;2023-05-20T01:44:38;100963.8;;;21.3;40.2
72124;BME280;63818;37.134;-8.548;2023-05-20T01:49:25;100959.1;;;21.3;40.4
72124;BME280;63818;37.134;-8.548;2023-05-20T01:54:13;100954.0;;;21.3;40.2
72124;BME280;63818;37.134;-8.548;2023-05-20T01:58:59;100940.3;;;21.3;40.1
72124;BME280;63818;37.134;-8.548;2023-05-20T02:03:47;100942.5;;;21.2;40.2
72124;BME280;63818;37.134;-8.548;2023-05-20T02:08:36;100935.6;;;21.2;40.4
72124;BME280;63818;37.134;-8.548;2023-05-20T02:13:22;100934.8;;;21.2;40.5
72124;BME280;63818;37.134;-8.548;2023-05-20T02:18:08;100929.7;;;21.2;40.3
72124;BME280;63818;37.134;-8.548;2023-05-20T02:22:54;100919.9;;;21.2;39.9
72124;BME280;63818;37.134;-8.548;2023-05-20T02:27:40;100909.7;;;21.2;39.7
72124;BME280;63818;37.134;-8.548;2023-05-20T02:32:26;100903.8;;;21.2;39.9
72124;BME280;63818;37.134;-8.548;2023-05-20T02:37:12;100908.5;;;21.1;39.7
72124;BME280;63818;37.134;-8.548;2023-05-20T02:41:58;100892.4;;;21.1;39.0
72124;BME280;63818;37.134;-8.548;2023-05-20T02:46:44;100883.4;;;21.1;38.7
72124;BME280;63818;37.134;-8.548;2023-05-20T02:51:33;100873.6;;;21.0;38.8
72124;BME280;63818;37.134;-8.548;2023-05-20T02:56:19;100877.5;;;21.0;38.9
72124;BME280;63818;37.134;-8.548;2023-05-20T03:01:05;100878.7;;;21.0;39.3
72124;BME280;63818;37.134;-8.548;2023-05-20T03:05:51;100874.4;;;21.0;39.1
72124;BME280;63818;37.134;-8.548;2023-05-20T03:10:37;100872.5;;;21.0;38.8
72124;BME280;63818;37.134;-8.548;2023-05-20T03:15:25;100862.2;;;21.0;39.0
72124;BME280;63818;37.134;-8.548;2023-05-20T03:20:14;100859.9;;;21.0;39.1
72124;BME280;63818;37.134;-8.548;2023-05-20T03:25:00;100856.3;;;20.9;39.0
72124;BME280;63818;37.134;-8.548;2023-05-20T03:29:46;100853.6;;;20.9;39.1
72124;BME280;63818;37.134;-8.548;2023-05-20T03:34:34;100847.4;;;20.9;39.1
72124;BME280;63818;37.134;-8.548;2023-05-20T03:39:22;100841.8;;;20.9;39.3
72124;BME280;63818;37.134;-8.548;2023-05-20T03:44:08;100838.3;;;20.9;39.4
72124;BME280;63818;37.134;-8.548;2023-05-20T03:48:54;100844.1;;;20.8;39.8
72124;BME280;63818;37.134;-8.548;2023-05-20T03:53:40;100839.0;;;20.8;40.0
72124;BME280;63818;37.134;-8.548;2023-05-20T03:58:29;100844.4;;;20.8;40.9
72124;BME280;63818;37.134;-8.548;2023-05-20T04:03:19;100841.3;;;20.8;42.2
72124;BME280;63818;37.134;-8.548;2023-05-20T04:08:10;100852.6;;;20.8;43.2
72124;BME280;63818;37.134;-8.548;2023-05-20T04:12:56;100839.7;;;20.7;44.1
72124;BME280;63818;37.134;-8.548;2023-05-20T04:17:45;100843.6;;;20.7;44.3
72124;BME280;63818;37.134;-8.548;2023-05-20T04:22:33;100836.5;;;20.6;44.5
72124;BME280;63818;37.134;-8.548;2023-05-20T04:27:19;100835.3;;;20.6;44.3
72124;BME280;63818;37.134;-8.548;2023-05-20T04:32:10;100827.5;;;20.6;44.7
72124;BME280;63818;37.134;-8.548;2023-05-20T04:37:01;100829.4;;;20.6;44.2
72124;BME280;63818;37.134;-8.548;2023-05-20T04:41:47;100823.5;;;20.6;44.0
72124;BME280;63818;37.134;-8.548;2023-05-20T04:46:34;100824.7;;;20.5;44.3
72124;BME280;63818;37.134;-8.548;2023-05-20T04:51:21;100825.7;;;20.5;44.9
72124;BME280;63818;37.134;-8.548;2023-05-20T04:56:08;100833.2;;;20.5;45.9
72124;BME280;63818;37.134;-8.548;2023-05-20T05:01:17;100839.4;;;20.5;47.0
72124;BME280;63818;37.134;-8.548;2023-05-20T05:06:03;100843.7;;;20.4;46.9
72124;BME280;63818;37.134;-8.548;2023-05-20T05:10:57;100846.3;;;20.4;46.9
72124;BME280;63818;37.134;-8.548;2023-05-20T05:15:43;100846.2;;;20.3;46.3
72124;BME280;63818;37.134;-8.548;2023-05-20T05:20:45;100851.6;;;20.3;45.7
72124;BME280;63818;37.134;-8.548;2023-05-20T05:25:31;100851.6;;;20.3;45.4
72124;BME280;63818;37.134;-8.548;2023-05-20T05:30:23;100846.8;;;20.2;45.3
72124;BME280;63818;37.134;-8.548;2023-05-20T05:35:09;100849.6;;;20.2;45.2
72124;BME280;63818;37.134;-8.548;2023-05-20T05:39:55;100837.1;;;20.2;45.2
72124;BME280;63818;37.134;-8.548;2023-05-20T05:44:41;100841.4;;;20.2;45.1
72124;BME280;63818;37.134;-8.548;2023-05-20T05:49:28;100837.2;;;20.3;45.3
72124;BME280;63818;37.134;-8.548;2023-05-20T05:54:14;100833.3;;;20.3;44.8
72124;BME280;63818;37.134;-8.548;2023-05-20T05:59:02;100844.2;;;20.2;44.9
72124;BME280;63818;37.134;-8.548;2023-05-20T06:03:49;100844.6;;;20.3;45.3
72124;BME280;63818;37.134;-8.548;2023-05-20T06:08:35;100848.5;;;20.3;44.9
72124;BME280;63818;37.134;-8.548;2023-05-20T06:13:23;100851.6;;;20.3;44.4
72124;BME280;63818;37.134;-8.548;2023-05-20T06:18:11;100843.4;;;20.3;44.3
72124;BME280;63818;37.134;-8.548;2023-05-20T06:22:56;100851.1;;;20.2;43.7
72124;BME280;63818;37.134;-8.548;2023-05-20T06:27:46;100848.8;;;20.2;44.1
72124;BME280;63818;37.134;-8.548;2023-05-20T06:32:33;100862.0;;;20.2;44.2
72124;BME280;63818;37.134;-8.548;2023-05-20T06:37:23;100854.5;;;20.1;44.0
72124;BME280;63818;37.134;-8.548;2023-05-20T06:42:09;100858.8;;;20.1;43.7
72124;BME280;63818;37.134;-8.548;2023-05-20T06:46:58;100861.1;;;20.1;43.2
72124;BME280;63818;37.134;-8.548;2023-05-20T06:51:47;100867.3;;;20.1;43.6
72124;BME280;63818;37.134;-8.548;2023-05-20T06:56:35;100866.6;;;20.1;43.6
72124;BME280;63818;37.134;-8.548;2023-05-20T07:01:22;100867.4;;;20.1;43.5
72124;BME280;63818;37.134;-8.548;2023-05-20T07:06:18;100868.3;;;20.2;43.3
72124;BME280;63818;37.134;-8.548;2023-05-20T07:11:06;100869.0;;;20.2;43.5
72124;BME280;63818;37.134;-8.548;2023-05-20T07:15:52;100882.7;;;20.2;44.1
72124;BME280;63818;37.134;-8.548;2023-05-20T07:20:38;100883.5;;;20.2;44.0
72124;BME280;63818;37.134;-8.548;2023-05-20T07:25:24;100892.5;;;20.2;43.6
72124;BME280;63818;37.134;-8.548;2023-05-20T07:34:57;100880.8;;;20.2;43.5
72124;BME280;63818;37.134;-8.548;2023-05-20T07:39:53;100881.3;;;20.3;43.9
72124;BME280;63818;37.134;-8.548;2023-05-20T07:44:39;100877.1;;;20.4;44.1
72124;BME280;63818;37.134;-8.548;2023-05-20T07:49:25;100871.6;;;20.4;43.7
72124;BME280;63818;37.134;-8.548;2023-05-20T07:54:13;100871.3;;;20.4;43.6
72124;BME280;63818;37.134;-8.548;2023-05-20T07:59:01;100873.3;;;20.5;43.9
72124;BME280;63818;37.134;-8.548;2023-05-20T08:03:47;100871.8;;;20.5;43.2
72124;BME280;63818;37.134;-8.548;2023-05-20T08:08:38;100874.9;;;20.5;43.5
72124;BME280;63818;37.134;-8.548;2023-05-20T08:13:24;100867.6;;;20.6;43.9
72124;BME280;63818;37.134;-8.548;2023-05-20T08:18:11;100868.8;;;20.6;43.5
72124;BME280;63818;37.134;-8.548;2023-05-20T08:23:03;100870.8;;;20.6;43.6
72124;BME280;63818;37.134;-8.548;2023-05-20T08:27:50;100861.9;;;20.6;43.1
72124;BME280;63818;37.134;-8.548;2023-05-20T08:32:39;100855.3;;;20.7;43.1
72124;BME280;63818;37.134;-8.548;2023-05-20T08:37:26;100853.8;;;20.7;43.6
72124;BME280;63818;37.134;-8.548;2023-05-20T08:42:12;100855.4;;;20.8;44.0
72124;BME280;63818;37.134;-8.548;2023-05-20T08:47:07;100853.8;;;20.8;43.2
72124;BME280;63818;37.134;-8.548;2023-05-20T08:51:54;100840.2;;;20.8;42.9
72124;BME280;63818;37.134;-8.548;2023-05-20T08:56:42;100828.9;;;20.8;43.2
72124;BME280;63818;37.134;-8.548;2023-05-20T09:01:30;100836.4;;;20.9;42.9
72124;BME280;63818;37.134;-8.548;2023-05-20T09:06:17;100835.2;;;20.9;42.7
72124;BME280;63818;37.134;-8.548;2023-05-20T09:11:03;100834.8;;;20.9;42.8
72124;BME280;63818;37.134;-8.548;2023-05-20T09:15:49;100835.7;;;20.9;43.0
72124;BME280;63818;37.134;-8.548;2023-05-20T09:20:36;100830.2;;;21.0;43.1
72124;BME280;63818;37.134;-8.548;2023-05-20T09:25:28;100833.0;;;21.0;42.9
72124;BME280;63818;37.134;-8.548;2023-05-20T09:30:14;100832.6;;;21.0;43.3
72124;BME280;63818;37.134;-8.548;2023-05-20T09:35:00;100828.3;;;21.0;43.6
72124;BME280;63818;37.134;-8.548;2023-05-20T09:39:56;100827.6;;;21.0;43.6
72124;BME280;63818;37.134;-8.548;2023-05-20T09:44:43;100821.3;;;21.0;43.5
72124;BME280;63818;37.134;-8.548;2023-05-20T09:49:29;100825.2;;;21.1;43.5
72124;BME280;63818;37.134;-8.548;2023-05-20T09:54:18;100825.6;;;21.0;43.4
72124;BME280;63818;37.134;-8.548;2023-05-20T09:59:06;100833.5;;;21.1;43.4
72124;BME280;63818;37.134;-8.548;2023-05-20T10:03:58;100825.2;;;21.1;43.7
72124;BME280;63818;37.134;-8.548;2023-05-20T10:09:20;100823.7;;;21.0;43.9
72124;BME280;63818;37.134;-8.548;2023-05-20T10:14:27;100828.8;;;21.0;43.8
72124;BME280;63818;37.134;-8.548;2023-05-20T10:19:24;100827.5;;;21.0;43.3
72124;BME280;63818;37.134;-8.548;2023-05-20T10:24:14;100817.4;;;21.0;43.7
72124;BME280;63818;37.134;-8.548;2023-05-20T10:29:00;100826.0;;;21.0;43.5
72124;BME280;63818;37.134;-8.548;2023-05-20T10:33:52;100825.6;;;21.0;43.6
72124;BME280;63818;37.134;-8.548;2023-05-20T10:43:41;100821.3;;;21.0;44.0
72124;BME280;63818;37.134;-8.548;2023-05-20T10:48:29;100819.8;;;21.0;44.3
72124;BME280;63818;37.134;-8.548;2023-05-20T10:53:16;100819.0;;;21.0;44.8
72124;BME280;63818;37.134;-8.548;2023-05-20T10:58:08;100820.6;;;21.1;44.8
72124;BME280;63818;37.134;-8.548;2023-05-20T11:02:56;100808.1;;;21.1;45.1
72124;BME280;63818;37.134;-8.548;2023-05-20T11:07:42;100815.9;;;21.1;46.4
72124;BME280;63818;37.134;-8.548;2023-05-20T11:12:35;100823.4;;;21.1;48.2
72124;BME280;63818;37.134;-8.548;2023-05-20T11:17:23;100822.2;;;21.1;49.4
72124;BME280;63818;37.134;-8.548;2023-05-20T11:22:11;100819.8;;;21.1;50.3
72124;BME280;63818;37.134;-8.548;2023-05-20T11:26:59;100816.6;;;21.0;50.0
72124;BME280;63818;37.134;-8.548;2023-05-20T11:31:47;100814.6;;;21.0;49.8
72124;BME280;63818;37.134;-8.548;2023-05-20T11:36:33;100812.2;;;20.9;49.2
72124;BME280;63818;37.134;-8.548;2023-05-20T11:41:24;100802.5;;;20.9;48.7
72124;BME280;63818;37.134;-8.548;2023-05-20T11:46:13;100808.4;;;21.0;50.1
72124;BME280;63818;37.134;-8.548;2023-05-20T11:50:58;100812.4;;;21.0;52.3
72124;BME280;63818;37.134;-8.548;2023-05-20T11:55:50;100812.3;;;21.0;51.7
72124;BME280;63818;37.134;-8.548;2023-05-20T12:00:36;100802.9;;;20.9;52.4
72124;BME280;63818;37.134;-8.548;2023-05-20T12:05:28;100802.5;;;21.0;51.6
72124;BME280;63818;37.134;-8.548;2023-05-20T12:10:18;100805.7;;;21.0;51.7
72124;BME280;63818;37.134;-8.548;2023-05-20T12:15:05;100791.6;;;20.9;50.8
72124;BME280;63818;37.134;-8.548;2023-05-20T12:19:54;100793.2;;;21.0;51.5
72124;BME280;63818;37.134;-8.548;2023-05-20T12:24:40;100793.9;;;21.0;51.3
72124;BME280;63818;37.134;-8.548;2023-05-20T12:29:28;100785.0;;;21.0;51.9
72124;BME280;63818;37.134;-8.548;2023-05-20T12:34:14;100785.0;;;21.0;51.4
72124;BME280;63818;37.134;-8.548;2023-05-20T12:43:56;100782.0;;;21.1;52.6
72124;BME280;63818;37.134;-8.548;2023-05-20T12:48:42;100787.4;;;21.1;54.6
72124;BME280;63818;37.134;-8.548;2023-05-20T12:53:28;100789.8;;;21.1;56.2
72124;BME280;63818;37.134;-8.548;2023-05-20T13:03:05;100787.9;;;21.2;57.1
72124;BME280;63818;37.134;-8.548;2023-05-20T13:07:51;100787.5;;;21.1;57.2
72124;BME280;63818;37.134;-8.548;2023-05-20T13:12:37;100783.2;;;21.2;57.3
72124;BME280;63818;37.134;-8.548;2023-05-20T13:17:23;100760.9;;;21.1;56.5
72124;BME280;63818;37.134;-8.548;2023-05-20T13:22:14;100757.4;;;21.1;56.7
72124;BME280;63818;37.134;-8.548;2023-05-20T13:27:00;100744.9;;;21.1;57.5
72124;BME280;63818;37.134;-8.548;2023-05-20T13:36:43;100744.9;;;21.1;58.6
72124;BME280;63818;37.134;-8.548;2023-05-20T13:41:29;100740.6;;;21.1;58.5
72124;BME280;63818;37.134;-8.548;2023-05-20T13:46:17;100732.9;;;21.2;58.6
72124;BME280;63818;37.134;-8.548;2023-05-20T13:51:05;100722.8;;;21.2;57.8
72124;BME280;63818;37.134;-8.548;2023-05-20T13:55:56;100717.3;;;21.3;57.9
72124;BME280;63818;37.134;-8.548;2023-05-20T14:00:42;100715.3;;;21.2;58.1
72124;BME280;63818;37.134;-8.548;2023-05-20T14:05:30;100713.8;;;21.3;58.9
72124;BME280;63818;37.134;-8.548;2023-05-20T14:10:18;100711.9;;;21.3;58.3
72124;BME280;63818;37.134;-8.548;2023-05-20T14:15:08;100720.9;;;21.3;58.4
72124;BME280;63818;37.134;-8.548;2023-05-20T14:19:55;100714.7;;;21.4;57.9
72124;BME280;63818;37.134;-8.548;2023-05-20T14:24:43;100716.7;;;21.4;57.1
72124;BME280;63818;37.134;-8.548;2023-05-20T14:29:32;100712.4;;;21.5;56.5
72124;BME280;63818;37.134;-8.548;2023-05-20T14:34:20;100702.6;;;21.5;55.9
72124;BME280;63818;37.134;-8.548;2023-05-20T14:39:06;100687.0;;;21.5;56.0
72124;BME280;63818;37.134;-8.548;2023-05-20T14:43:52;100686.7;;;21.6;56.6
72124;BME280;63818;37.134;-8.548;2023-05-20T14:48:41;100677.7;;;21.6;56.6
72124;BME280;63818;37.134;-8.548;2023-05-20T14:53:29;100668.0;;;21.7;56.0
72124;BME280;63818;37.134;-8.548;2023-05-20T14:58:23;100650.8;;;21.8;55.0
72124;BME280;63818;37.134;-8.548;2023-05-20T15:03:09;100652.4;;;21.8;53.4
72124;BME280;63818;37.134;-8.548;2023-05-20T15:07:55;100639.9;;;21.9;51.5
72124;BME280;63818;37.134;-8.548;2023-05-20T15:12:40;100633.3;;;21.9;51.1
72124;BME280;63818;37.134;-8.548;2023-05-20T15:17:35;100630.6;;;22.0;50.7
72124;BME280;63818;37.134;-8.548;2023-05-20T15:22:21;100630.2;;;22.0;51.1
72124;BME280;63818;37.134;-8.548;2023-05-20T15:27:07;100637.3;;;22.0;52.0
72124;BME280;63818;37.134;-8.548;2023-05-20T15:31:58;100629.1;;;22.1;52.3
72124;BME280;63818;37.134;-8.548;2023-05-20T15:36:44;100621.3;;;22.2;52.5
72124;BME280;63818;37.134;-8.548;2023-05-20T15:41:33;100627.1;;;22.2;52.6
72124;BME280;63818;37.134;-8.548;2023-05-20T15:46:22;100629.9;;;22.4;53.0
72124;BME280;63818;37.134;-8.548;2023-05-20T15:51:11;100629.9;;;22.5;52.1
72124;BME280;63818;37.134;-8.548;2023-05-20T15:55:57;100626.8;;;22.6;50.6
72124;BME280;63818;37.134;-8.548;2023-05-20T16:00:45;100605.7;;;22.8;50.5
72124;BME280;63818;37.134;-8.548;2023-05-20T16:05:31;100595.5;;;22.9;44.7
72124;BME280;63818;37.134;-8.548;2023-05-20T16:10:20;100579.5;;;23.0;43.5
72124;BME280;63818;37.134;-8.548;2023-05-20T16:15:07;100567.7;;;23.0;40.7
72124;BME280;63818;37.134;-8.548;2023-05-20T16:19:57;100559.8;;;23.1;38.5
72124;BME280;63818;37.134;-8.548;2023-05-20T16:24:43;100560.6;;;23.2;37.5
72124;BME280;63818;37.134;-8.548;2023-05-20T16:29:33;100555.1;;;23.3;37.8
72124;BME280;63818;37.134;-8.548;2023-05-20T16:34:20;100562.5;;;23.4;41.1
72124;BME280;63818;37.134;-8.548;2023-05-20T16:39:05;100558.6;;;23.3;41.0
72124;BME280;63818;37.134;-8.548;2023-05-20T16:43:54;100563.4;;;23.1;42.0
72124;BME280;63818;37.134;-8.548;2023-05-20T16:48:41;100560.2;;;23.1;43.3
72124;BME280;63818;37.134;-8.548;2023-05-20T16:53:36;100560.2;;;23.1;45.1
72124;BME280;63818;37.134;-8.548;2023-05-20T16:58:22;100584.1;;;23.2;48.5
72124;BME280;63818;37.134;-8.548;2023-05-20T17:03:10;100583.4;;;23.0;49.4
72124;BME280;63818;37.134;-8.548;2023-05-20T17:07:55;100600.6;;;22.7;50.8
72124;BME280;63818;37.134;-8.548;2023-05-20T17:12:46;100594.3;;;22.5;51.1
72124;BME280;63818;37.134;-8.548;2023-05-20T17:17:32;100590.4;;;22.4;52.8
72124;BME280;63818;37.134;-8.548;2023-05-20T17:22:20;100597.1;;;22.4;54.2
72124;BME280;63818;37.134;-8.548;2023-05-20T17:27:06;100603.7;;;22.4;54.7
72124;BME280;63818;37.134;-8.548;2023-05-20T17:31:53;100602.9;;;22.4;55.3
72124;BME280;63818;37.134;-8.548;2023-05-20T17:36:38;100599.0;;;22.3;55.1
72124;BME280;63818;37.134;-8.548;2023-05-20T17:41:24;100590.0;;;22.4;54.7
72124;BME280;63818;37.134;-8.548;2023-05-20T17:46:11;100588.5;;;22.3;54.0
72124;BME280;63818;37.134;-8.548;2023-05-20T17:50:57;100588.9;;;22.3;53.1
72124;BME280;63818;37.134;-8.548;2023-05-20T17:55:43;100583.0;;;22.2;52.2
72124;BME280;63818;37.134;-8.548;2023-05-20T18:00:32;100577.9;;;22.3;51.7
72124;BME280;63818;37.134;-8.548;2023-05-20T18:05:20;100568.1;;;22.3;50.2
72124;BME280;63818;37.134;-8.548;2023-05-20T18:10:07;100557.2;;;22.3;47.6
72124;BME280;63818;37.134;-8.548;2023-05-20T18:14:53;100566.6;;;22.3;45.7
72124;BME280;63818;37.134;-8.548;2023-05-20T18:19:38;100568.9;;;22.3;46.4
72124;BME280;63818;37.134;-8.548;2023-05-20T18:24:27;100569.7;;;22.4;47.8
72124;BME280;63818;37.134;-8.548;2023-05-20T18:29:13;100575.2;;;22.3;47.8
72124;BME280;63818;37.134;-8.548;2023-05-20T18:34:01;100576.7;;;22.2;48.6
72124;BME280;63818;37.134;-8.548;2023-05-20T18:38:47;100582.6;;;22.2;49.1
72124;BME280;63818;37.134;-8.548;2023-05-20T18:43:33;100569.3;;;22.2;46.7
72124;BME280;63818;37.134;-8.548;2023-05-20T18:48:20;100553.6;;;22.0;41.3
72124;BME280;63818;37.134;-8.548;2023-05-20T18:53:11;100547.4;;;22.0;39.9
72124;BME280;63818;37.134;-8.548;2023-05-20T18:57:57;100557.5;;;22.0;39.8
72124;BME280;63818;37.134;-8.548;2023-05-20T19:02:45;100550.9;;;22.0;40.0
72124;BME280;63818;37.134;-8.548;2023-05-20T19:07:31;100549.3;;;22.0;40.3
72124;BME280;63818;37.134;-8.548;2023-05-20T19:12:17;100556.0;;;22.0;40.6
72124;BME280;63818;37.134;-8.548;2023-05-20T19:17:03;100538.7;;;21.9;40.6
72124;BME280;63818;37.134;-8.548;2023-05-20T19:21:58;100543.5;;;22.0;41.2
72124;BME280;63818;37.134;-8.548;2023-05-20T19:31:35;100546.1;;;21.9;41.2
72124;BME280;63818;37.134;-8.548;2023-05-20T19:36:32;100539.9;;;21.9;41.2
72124;BME280;63818;37.134;-8.548;2023-05-20T19:41:17;100554.3;;;21.9;41.1
72124;BME280;63818;37.134;-8.548;2023-05-20T19:46:03;100548.1;;;21.9;41.0
72124;BME280;63818;37.134;-8.548;2023-05-20T19:50:51;100540.7;;;21.8;41.1
72124;BME280;63818;37.134;-8.548;2023-05-20T19:55:37;100553.1;;;21.8;41.5
72124;BME280;63818;37.134;-8.548;2023-05-20T20:00:23;100543.0;;;21.7;41.3
72124;BME280;63818;37.134;-8.548;2023-05-20T20:05:14;100540.3;;;21.7;41.4
72124;BME280;63818;37.134;-8.548;2023-05-20T20:10:02;100546.5;;;21.8;42.5
72124;BME280;63818;37.134;-8.548;2023-05-20T20:19:43;100578.9;;;21.8;50.3
72124;BME280;63818;37.134;-8.548;2023-05-20T20:24:29;100581.2;;;21.7;51.4
72124;BME280;63818;37.134;-8.548;2023-05-20T20:29:31;100585.2;;;21.6;52.4
72124;BME280;63818;37.134;-8.548;2023-05-20T20:34:17;100594.5;;;21.6;53.9
72124;BME280;63818;37.134;-8.548;2023-05-20T20:39:04;100591.3;;;21.5;54.8
72124;BME280;63818;37.134;-8.548;2023-05-20T20:43:52;100601.9;;;21.5;55.7
72124;BME280;63818;37.134;-8.548;2023-05-20T20:48:38;100598.0;;;21.4;56.7
72124;BME280;63818;37.134;-8.548;2023-05-20T20:53:25;100607.7;;;21.5;56.9
72124;BME280;63818;37.134;-8.548;2023-05-20T20:58:12;100614.0;;;21.5;57.1
72124;BME280;63818;37.134;-8.548;2023-05-20T21:02:58;100622.6;;;21.4;57.4
72124;BME280;63818;37.134;-8.548;2023-05-20T21:07:49;100617.9;;;21.5;57.3
72124;BME280;63818;37.134;-8.548;2023-05-20T21:12:37;100619.8;;;21.4;57.5
72124;BME280;63818;37.134;-8.548;2023-05-20T21:17:25;100624.5;;;21.4;57.6
72124;BME280;63818;37.134;-8.548;2023-05-20T21:22:11;100627.2;;;21.3;57.8
72124;BME280;63818;37.134;-8.548;2023-05-20T21:26:57;100631.4;;;21.2;58.0
72124;BME280;63818;37.134;-8.548;2023-05-20T21:31:53;100625.9;;;21.2;58.1
72124;BME280;63818;37.134;-8.548;2023-05-20T21:36:39;100634.1;;;21.2;58.0
72124;BME280;63818;37.134;-8.548;2023-05-20T21:41:29;100658.7;;;21.2;57.9
72124;BME280;63818;37.134;-8.548;2023-05-20T21:46:16;100661.8;;;21.2;57.8
72124;BME280;63818;37.134;-8.548;2023-05-20T21:51:04;100659.2;;;21.3;58.0
72124;BME280;63818;37.134;-8.548;2023-05-20T22:00:41;100642.8;;;21.4;57.9
72124;BME280;63818;37.134;-8.548;2023-05-20T22:05:29;100648.0;;;21.5;57.7
72124;BME280;63818;37.134;-8.548;2023-05-20T22:10:29;100632.7;;;21.5;57.7
72124;BME280;63818;37.134;-8.548;2023-05-20T22:15:15;100622.6;;;21.5;56.7
72124;BME280;63818;37.134;-8.548;2023-05-20T22:20:05;100614.4;;;21.5;56.7
72124;BME280;63818;37.134;-8.548;2023-05-20T22:24:51;100605.4;;;21.5;56.2
72124;BME280;63818;37.134;-8.548;2023-05-20T22:29:38;100599.2;;;21.5;55.8
72124;BME280;63818;37.134;-8.548;2023-05-20T22:34:29;100603.5;;;21.5;56.1
72124;BME280;63818;37.134;-8.548;2023-05-20T22:39:15;100605.4;;;21.5;55.7
72124;BME280;63818;37.134;-8.548;2023-05-20T22:44:12;100605.4;;;21.5;56.3
72124;BME280;63818;37.134;-8.548;2023-05-20T22:48:58;100601.1;;;21.5;56.9
72124;BME280;63818;37.134;-8.548;2023-05-20T22:53:47;100598.4;;;21.5;57.3
72124;BME280;63818;37.134;-8.548;2023-05-20T22:58:33;100608.9;;;21.5;58.0
72124;BME280;63818;37.134;-8.548;2023-05-20T23:03:21;100607.0;;;21.5;58.3
72124;BME280;63818;37.134;-8.548;2023-05-20T23:08:07;100596.4;;;21.4;58.3
72124;BME280;63818;37.134;-8.548;2023-05-20T23:12:56;100593.3;;;21.5;58.5
72124;BME280;63818;37.134;-8.548;2023-05-20T23:17:42;100585.5;;;21.4;58.2
72124;BME280;63818;37.134;-8.548;2023-05-20T23:22:30;100597.2;;;21.4;58.0
72124;BME280;63818;37.134;-8.548;2023-05-20T23:27:16;100587.8;;;21.4;58.0
72124;BME280;63818;37.134;-8.548;2023-05-20T23:32:05;100586.2;;;21.4;58.2
72124;BME280;63818;37.134;-8.548;2023-05-20T23:36:53;100578.8;;;21.4;58.3
72124;BME280;63818;37.134;-8.548;2023-05-20T23:41:39;100589.3;;;21.4;58.7
72124;BME280;63818;37.134;-8.548;2023-05-20T23:46:27;100594.4;;;21.4;58.8
72124;BME280;63818;37.134;-8.548;2023-05-20T23:51:15;100587.0;;;21.3;59.2
72124;BME280;63818;37.134;-8.548;2023-05-20T23:56:02;100581.5;;;21.3;59.6
